Time,TemperatureF,DewpointF,PressureIn,WindDirection,WindDirectionDegrees,WindSpeedMPH,WindSpeedGustMPH,Humidity,HourlyPrecipIn,Conditions,Clouds,dailyrainin,SoftwareType,DateUTC
2013-01-14 00:00:00,39.5,37.4,29.73,SW,232,0.0,4.0,92,0.00,,,0.20,Wunderground v.1.13,2013-01-14 05:00:00,
2013-01-14 00:30:00,38.2,36.6,29.70,SW,232,0.0,4.0,94,0.00,,,0.20,Wunderground v.1.13,2013-01-14 05:30:00,
2013-01-14 01:00:00,38.0,36.4,29.69,SW,232,0.0,4.0,94,0.00,,,0.00,Wunderground v.1.13,2013-01-14 06:00:00,
2013-01-14 01:30:00,37.8,36.0,29.66,SW,232,0.0,4.0,93,0.00,,,0.00,Wunderground v.1.13,2013-01-14 06:30:00,
2013-01-14 02:00:00,36.9,35.3,29.64,SW,232,0.0,4.0,94,0.00,,,0.00,Wunderground v.1.13,2013-01-14 07:00:00,
2013-01-14 02:30:00,37.8,36.5,29.63,SW,232,0.0,4.0,95,0.00,,,0.00,Wunderground v.1.13,2013-01-14 07:30:00,
2013-01-14 03:00:00,38.0,36.7,29.63,SW,232,0.0,4.0,95,0.00,,,0.00,Wunderground v.1.13,2013-01-14 08:00:00,
2013-01-14 03:30:00,38.2,36.9,29.62,SW,232,0.0,4.0,95,0.00,,,0.00,Wunderground v.1.13,2013-01-14 08:30:00,
2013-01-14 04:00:00,38.5,37.5,29.62,SW,232,0.0,4.0,96,0.00,,,0.00,Wunderground v.1.13,2013-01-14 09:00:00,
2013-01-14 04:30:00,47.1,46.6,29.68,WSW,258,7.0,8.0,98,0.08,,,0.06,Wunderground v.1.13,2013-01-14 09:30:00,
2013-01-14 05:00:00,46.2,45.1,29.70,WSW,240,4.0,4.0,96,0.00,,,0.07,Wunderground v.1.13,2013-01-14 10:00:00,
2013-01-14 05:30:00,45.4,44.3,29.72,WSW,252,2.0,2.0,96,0.00,,,0.07,Wunderground v.1.13,2013-01-14 10:30:00,
2013-01-14 06:00:00,44.9,43.8,29.77,WSW,244,3.0,4.0,96,0.00,,,0.08,Wunderground v.1.13,2013-01-14 11:00:00,
2013-01-14 06:30:00,44.3,43.0,29.79,WSW,254,4.0,4.0,95,0.00,,,0.08,Wunderground v.1.13,2013-01-14 11:30:00,
2013-01-14 07:00:00,43.8,41.9,29.84,West,269,5.0,5.0,93,0.00,,,0.08,Wunderground v.1.13,2013-01-14 12:00:00,
2013-01-14 07:30:00,42.9,40.2,29.88,SW,233,4.0,5.0,90,0.00,,,0.08,Wunderground v.1.13,2013-01-14 12:30:00,
2013-01-14 08:00:00,41.8,37.3,29.93,West,270,5.0,6.0,84,0.00,,,0.08,Wunderground v.1.13,2013-01-14 13:00:00,
2013-01-14 08:30:00,40.6,35.5,29.96,WSW,247,3.0,4.0,82,0.00,,,0.08,Wunderground v.1.13,2013-01-14 13:30:00,
2013-01-14 09:00:00,40.2,34.8,29.99,WSW,242,4.0,10.0,81,0.00,,,0.08,Wunderground v.1.13,2013-01-14 14:00:00,
2013-01-14 09:30:00,40.1,32.8,30.01,SW,228,6.0,6.0,75,0.00,,,0.08,Wunderground v.1.13,2013-01-14 14:30:00,
2013-01-14 10:00:00,40.3,31.6,30.03,WSW,244,8.0,8.0,71,0.00,,,0.08,Wunderground v.1.13,2013-01-14 15:00:00,
2013-01-14 10:30:00,39.8,31.2,30.05,SSW,211,8.0,10.0,71,0.00,,,0.08,Wunderground v.1.13,2013-01-14 15:30:00,
2013-01-14 11:00:00,39.9,31.3,30.06,WSW,246,4.0,12.0,71,0.00,,,0.08,Wunderground v.1.13,2013-01-14 16:00:00,
2013-01-14 11:30:00,40.5,30.8,30.07,WSW,252,4.0,4.0,68,0.00,,,0.08,Wunderground v.1.13,2013-01-14 16:30:00,
2013-01-14 12:00:00,41.3,28.9,30.07,West,266,5.0,7.0,61,0.00,,,0.08,Wunderground v.1.13,2013-01-14 17:00:00,
2013-01-14 12:30:00,41.5,27.4,30.07,SW,229,8.0,14.0,57,0.00,,,0.08,Wunderground v.1.13,2013-01-14 17:30:00,
2013-01-14 13:00:00,40.2,27.0,30.08,WSW,248,7.0,10.0,59,0.00,,,0.08,Wunderground v.1.13,2013-01-14 18:00:00,
2013-01-14 13:30:00,39.5,26.3,30.10,West,263,6.0,11.0,59,0.00,,,0.08,Wunderground v.1.13,2013-01-14 18:30:00,
2013-01-14 14:00:00,40.1,26.1,30.11,WSW,255,2.0,6.0,57,0.00,,,0.08,Wunderground v.1.13,2013-01-14 19:00:00,
2013-01-14 14:30:00,39.2,26.5,30.12,NW,319,3.0,6.0,60,0.00,,,0.08,Wunderground v.1.13,2013-01-14 19:30:00,
2013-01-14 15:00:00,38.6,25.1,30.14,WSW,248,6.0,9.0,58,0.00,,,0.08,Wunderground v.1.13,2013-01-14 20:00:00,
2013-01-14 15:30:00,37.9,25.2,30.15,SW,233,3.0,3.0,60,0.00,,,0.08,Wunderground v.1.13,2013-01-14 20:30:00,
2013-01-14 16:00:00,37.6,25.0,30.16,WSW,257,2.0,4.0,60,0.00,,,0.08,Wunderground v.1.13,2013-01-14 21:00:00,
2013-01-14 16:30:00,37.2,25.0,30.16,WSW,255,1.0,1.0,61,0.00,,,0.08,Wunderground v.1.13,2013-01-14 21:30:00,
2013-01-14 17:00:00,36.6,25.2,30.17,WSW,238,3.0,5.0,63,0.00,,,0.08,Wunderground v.1.13,2013-01-14 22:00:00,
2013-01-14 17:30:00,36.2,25.2,30.17,WSW,251,3.0,3.0,64,0.00,,,0.08,Wunderground v.1.13,2013-01-14 22:30:00,
2013-01-14 18:00:00,35.9,24.9,30.18,SW,229,3.0,5.0,64,0.00,,,0.08,Wunderground v.1.13,2013-01-14 23:00:00,
2013-01-14 18:30:00,35.8,24.8,30.20,SW,227,3.0,5.0,64,0.00,,,0.08,Wunderground v.1.13,2013-01-14 23:30:00,
2013-01-14 19:00:00,35.5,24.9,30.21,SSW,203,3.0,4.0,65,0.00,,,0.08,Wunderground v.1.13,2013-01-15 00:00:00,
2013-01-14 19:30:00,35.3,24.7,30.21,SW,232,4.0,4.0,65,0.00,,,0.08,Wunderground v.1.13,2013-01-15 00:30:00,
2013-01-14 20:00:00,35.2,25.3,30.24,West,269,2.0,5.0,67,0.00,,,0.08,Wunderground v.1.13,2013-01-15 01:00:00,
2013-01-14 20:30:00,34.9,25.4,30.24,West,263,2.0,2.0,68,0.00,,,0.08,Wunderground v.1.13,2013-01-15 01:30:00,
2013-01-14 21:00:00,34.4,22.7,30.23,West,271,2.0,4.0,62,0.00,,,0.08,Wunderground v.1.13,2013-01-15 02:00:00,
2013-01-14 21:30:00,34.1,23.2,30.21,West,266,1.0,4.0,64,0.00,,,0.08,Wunderground v.1.13,2013-01-15 02:30:00,
2013-01-14 22:00:00,33.8,22.5,30.22,West,275,1.0,4.0,63,0.00,,,0.08,Wunderground v.1.13,2013-01-15 03:00:00,
2013-01-14 22:30:00,33.4,22.5,30.22,WNW,297,1.0,1.0,64,0.00,,,0.08,Wunderground v.1.13,2013-01-15 03:30:00,
2013-01-14 23:00:00,33.1,21.9,30.24,WNW,300,1.0,4.0,63,0.00,,,0.08,Wunderground v.1.13,2013-01-15 04:00:00,
2013-01-14 23:30:00,32.4,21.9,30.25,NW,317,2.0,2.0,65,0.00,,,0.08,Wunderground v.1.13,2013-01-15 04:30:00,